sensor_id;sensor_type;location;lat;lon;timestamp;temperature;humidity
10492;DHT22;5293;51.464;-2.566;2022-07-23T00:01:03;17.90;99.90
10492;DHT22;5293;51.464;-2.566;2022-07-23T00:03:29;17.90;99.90
10492;DHT22;5293;51.464;-2.566;2022-07-23T00:05:54;17.90;99.90
10492;DHT22;5293;51.464;-2.566;2022-07-23T00:08:20;17.90;99.90
10492;DHT22;5293;51.464;-2.566;2022-07-23T00:10:46;17.90;99.90
10492;DHT22;5293;51.464;-2.566;2022-07-23T00:13:11;17.90;99.90
10492;DHT22;5293;51.464;-2.566;2022-07-23T00:15:37;17.90;99.90
10492;DHT22;5293;51.464;-2.566;2022-07-23T00:18:03;17.90;99.90
10492;DHT22;5293;51.464;-2.566;2022-07-23T00:20:28;17.80;99.90
10492;DHT22;5293;51.464;-2.566;2022-07-23T00:22:55;17.70;99.90
10492;DHT22;5293;51.464;-2.566;2022-07-23T00:25:22;17.70;99.90
10492;DHT22;5293;51.464;-2.566;2022-07-23T00:27:48;17.70;99.90
10492;DHT22;5293;51.464;-2.566;2022-07-23T00:30:14;17.60;99.90
10492;DHT22;5293;51.464;-2.566;2022-07-23T00:35:13;17.50;99.90
10492;DHT22;5293;51.464;-2.566;2022-07-23T00:37:38;17.40;99.90
10492;DHT22;5293;51.464;-2.566;2022-07-23T00:40:04;17.40;99.90
10492;DHT22;5293;51.464;-2.566;2022-07-23T00:42:31;17.40;99.90
10492;DHT22;5293;51.464;-2.566;2022-07-23T00:44:57;17.30;99.90
10492;DHT22;5293;51.464;-2.566;2022-07-23T00:47:23;17.30;99.90
10492;DHT22;5293;51.464;-2.566;2022-07-23T00:49:48;17.30;99.90
10492;DHT22;5293;51.464;-2.566;2022-07-23T00:52:14;17.20;99.90
10492;DHT22;5293;51.464;-2.566;2022-07-23T00:54:40;17.20;99.90
10492;DHT22;5293;51.464;-2.566;2022-07-23T00:57:05;17.10;99.90
10492;DHT22;5293;51.464;-2.566;2022-07-23T00:59:31;17.20;99.90
10492;DHT22;5293;51.464;-2.566;2022-07-23T01:01:57;17.10;99.90
10492;DHT22;5293;51.464;-2.566;2022-07-23T01:04:23;17.10;99.90
10492;DHT22;5293;51.464;-2.566;2022-07-23T01:06:49;17.00;99.90
10492;DHT22;5293;51.464;-2.566;2022-07-23T01:09:15;17.00;99.90
10492;DHT22;5293;51.464;-2.566;2022-07-23T01:11:41;17.00;99.90
10492;DHT22;5293;51.464;-2.566;2022-07-23T01:14:15;17.00;99.90
10492;DHT22;5293;51.464;-2.566;2022-07-23T01:16:43;17.00;99.90
10492;DHT22;5293;51.464;-2.566;2022-07-23T01:19:09;17.00;99.90
10492;DHT22;5293;51.464;-2.566;2022-07-23T01:21:40;16.90;99.90
10492;DHT22;5293;51.464;-2.566;2022-07-23T01:24:07;16.80;99.90
10492;DHT22;5293;51.464;-2.566;2022-07-23T01:26:33;16.80;99.90
10492;DHT22;5293;51.464;-2.566;2022-07-23T01:28:59;16.80;99.90
10492;DHT22;5293;51.464;-2.566;2022-07-23T01:31:25;16.80;99.90
10492;DHT22;5293;51.464;-2.566;2022-07-23T01:33:51;16.80;99.90
10492;DHT22;5293;51.464;-2.566;2022-07-23T01:36:17;16.80;99.90
10492;DHT22;5293;51.464;-2.566;2022-07-23T01:38:43;16.80;99.90
10492;DHT22;5293;51.464;-2.566;2022-07-23T01:41:08;16.70;99.90
10492;DHT22;5293;51.464;-2.566;2022-07-23T01:43:34;16.70;99.90
10492;DHT22;5293;51.464;-2.566;2022-07-23T01:45:59;16.70;99.90
10492;DHT22;5293;51.464;-2.566;2022-07-23T01:48:25;16.70;99.90
10492;DHT22;5293;51.464;-2.566;2022-07-23T01:50:51;16.70;99.90
10492;DHT22;5293;51.464;-2.566;2022-07-23T01:53:17;16.70;99.90
10492;DHT22;5293;51.464;-2.566;2022-07-23T01:55:43;16.60;99.90
10492;DHT22;5293;51.464;-2.566;2022-07-23T01:58:08;16.60;99.90
10492;DHT22;5293;51.464;-2.566;2022-07-23T02:00:34;16.60;99.90
10492;DHT22;5293;51.464;-2.566;2022-07-23T02:03:00;16.50;99.90
10492;DHT22;5293;51.464;-2.566;2022-07-23T02:05:26;16.50;99.90
10492;DHT22;5293;51.464;-2.566;2022-07-23T02:07:54;16.50;99.90
10492;DHT22;5293;51.464;-2.566;2022-07-23T02:10:20;16.50;99.90
10492;DHT22;5293;51.464;-2.566;2022-07-23T02:12:46;16.50;99.90
10492;DHT22;5293;51.464;-2.566;2022-07-23T02:15:12;16.40;99.90
10492;DHT22;5293;51.464;-2.566;2022-07-23T02:17:38;16.40;99.90
10492;DHT22;5293;51.464;-2.566;2022-07-23T02:20:04;16.40;99.90
10492;DHT22;5293;51.464;-2.566;2022-07-23T02:22:30;16.50;99.90
10492;DHT22;5293;51.464;-2.566;2022-07-23T02:24:56;16.50;99.90
10492;DHT22;5293;51.464;-2.566;2022-07-23T02:27:22;16.40;99.90
10492;DHT22;5293;51.464;-2.566;2022-07-23T02:29:48;16.40;99.90
10492;DHT22;5293;51.464;-2.566;2022-07-23T02:32:14;16.50;99.90
10492;DHT22;5293;51.464;-2.566;2022-07-23T02:34:40;16.50;99.90
10492;DHT22;5293;51.464;-2.566;2022-07-23T02:37:05;16.40;99.90
10492;DHT22;5293;51.464;-2.566;2022-07-23T02:39:31;16.30;99.90
10492;DHT22;5293;51.464;-2.566;2022-07-23T02:41:57;16.30;99.90
10492;DHT22;5293;51.464;-2.566;2022-07-23T02:44:22;16.30;99.90
10492;DHT22;5293;51.464;-2.566;2022-07-23T02:46:48;16.30;99.90
10492;DHT22;5293;51.464;-2.566;2022-07-23T02:49:14;16.30;99.90
10492;DHT22;5293;51.464;-2.566;2022-07-23T02:51:39;16.20;99.90
10492;DHT22;5293;51.464;-2.566;2022-07-23T02:54:05;16.20;99.90
10492;DHT22;5293;51.464;-2.566;2022-07-23T02:56:30;16.30;99.90
10492;DHT22;5293;51.464;-2.566;2022-07-23T02:58:56;16.30;99.90
10492;DHT22;5293;51.464;-2.566;2022-07-23T03:01:22;16.30;99.90
10492;DHT22;5293;51.464;-2.566;2022-07-23T03:03:48;16.20;99.90
10492;DHT22;5293;51.464;-2.566;2022-07-23T03:06:13;16.30;99.90
10492;DHT22;5293;51.464;-2.566;2022-07-23T03:08:39;16.30;99.90
10492;DHT22;5293;51.464;-2.566;2022-07-23T03:11:04;16.20;99.90
10492;DHT22;5293;51.464;-2.566;2022-07-23T03:13:36;16.20;99.90
10492;DHT22;5293;51.464;-2.566;2022-07-23T03:16:02;16.20;99.90
10492;DHT22;5293;51.464;-2.566;2022-07-23T03:18:28;16.30;99.90
10492;DHT22;5293;51.464;-2.566;2022-07-23T03:20:54;16.20;99.90
10492;DHT22;5293;51.464;-2.566;2022-07-23T03:23:20;16.10;99.90
10492;DHT22;5293;51.464;-2.566;2022-07-23T03:25:45;16.10;99.90
10492;DHT22;5293;51.464;-2.566;2022-07-23T03:28:14;16.10;99.90
10492;DHT22;5293;51.464;-2.566;2022-07-23T03:30:44;16.20;99.90
10492;DHT22;5293;51.464;-2.566;2022-07-23T03:33:15;16.20;99.90
10492;DHT22;5293;51.464;-2.566;2022-07-23T03:35:45;16.20;99.90
10492;DHT22;5293;51.464;-2.566;2022-07-23T03:38:11;16.20;99.90
10492;DHT22;5293;51.464;-2.566;2022-07-23T03:40:37;16.20;99.90
10492;DHT22;5293;51.464;-2.566;2022-07-23T03:43:02;16.20;99.90
10492;DHT22;5293;51.464;-2.566;2022-07-23T03:45:28;16.10;99.90
10492;DHT22;5293;51.464;-2.566;2022-07-23T03:47:54;16.20;99.90
10492;DHT22;5293;51.464;-2.566;2022-07-23T03:50:19;16.20;99.90
10492;DHT22;5293;51.464;-2.566;2022-07-23T03:52:45;16.10;99.90
10492;DHT22;5293;51.464;-2.566;2022-07-23T03:55:11;16.10;99.90
10492;DHT22;5293;51.464;-2.566;2022-07-23T03:57:36;16.10;99.90
10492;DHT22;5293;51.464;-2.566;2022-07-23T04:00:04;16.10;99.90
10492;DHT22;5293;51.464;-2.566;2022-07-23T04:02:31;16.10;99.90
10492;DHT22;5293;51.464;-2.566;2022-07-23T04:04:57;16.10;99.90
10492;DHT22;5293;51.464;-2.566;2022-07-23T04:07:23;16.10;99.90
10492;DHT22;5293;51.464;-2.566;2022-07-23T04:09:52;16.10;99.90
10492;DHT22;5293;51.464;-2.566;2022-07-23T04:12:17;16.10;99.90
10492;DHT22;5293;51.464;-2.566;2022-07-23T04:14:44;16.10;99.90
10492;DHT22;5293;51.464;-2.566;2022-07-23T04:17:09;16.10;99.90
10492;DHT22;5293;51.464;-2.566;2022-07-23T04:19:35;16.00;99.90
10492;DHT22;5293;51.464;-2.566;2022-07-23T04:22:06;16.10;99.90
10492;DHT22;5293;51.464;-2.566;2022-07-23T04:24:32;16.10;99.90
10492;DHT22;5293;51.464;-2.566;2022-07-23T04:26:58;16.10;99.90
10492;DHT22;5293;51.464;-2.566;2022-07-23T04:29:27;16.10;99.90
10492;DHT22;5293;51.464;-2.566;2022-07-23T04:31:53;16.10;99.90
10492;DHT22;5293;51.464;-2.566;2022-07-23T04:34:18;16.10;99.90
10492;DHT22;5293;51.464;-2.566;2022-07-23T04:36:44;16.10;99.90
10492;DHT22;5293;51.464;-2.566;2022-07-23T04:39:10;16.10;99.90
10492;DHT22;5293;51.464;-2.566;2022-07-23T04:41:36;16.10;99.90
10492;DHT22;5293;51.464;-2.566;2022-07-23T04:44:02;16.10;99.90
10492;DHT22;5293;51.464;-2.566;2022-07-23T04:46:28;16.20;99.90
10492;DHT22;5293;51.464;-2.566;2022-07-23T04:48:54;16.20;99.90
10492;DHT22;5293;51.464;-2.566;2022-07-23T04:51:20;16.30;99.90
10492;DHT22;5293;51.464;-2.566;2022-07-23T04:53:46;16.30;99.90
10492;DHT22;5293;51.464;-2.566;2022-07-23T04:56:11;16.40;99.90
10492;DHT22;5293;51.464;-2.566;2022-07-23T04:58:37;16.40;99.90
10492;DHT22;5293;51.464;-2.566;2022-07-23T05:01:03;16.50;99.90
10492;DHT22;5293;51.464;-2.566;2022-07-23T05:03:29;16.50;99.90
10492;DHT22;5293;51.464;-2.566;2022-07-23T05:05:54;16.60;99.90
10492;DHT22;5293;51.464;-2.566;2022-07-23T05:08:20;16.60;99.90
10492;DHT22;5293;51.464;-2.566;2022-07-23T05:10:46;16.60;99.90
10492;DHT22;5293;51.464;-2.566;2022-07-23T05:13:13;16.70;99.90
10492;DHT22;5293;51.464;-2.566;2022-07-23T05:15:39;16.80;99.90
10492;DHT22;5293;51.464;-2.566;2022-07-23T05:18:05;16.80;99.90
10492;DHT22;5293;51.464;-2.566;2022-07-23T05:20:30;16.90;99.90
10492;DHT22;5293;51.464;-2.566;2022-07-23T05:22:56;16.90;99.90
10492;DHT22;5293;51.464;-2.566;2022-07-23T05:25:22;17.00;99.90
10492;DHT22;5293;51.464;-2.566;2022-07-23T05:27:47;17.00;99.90
10492;DHT22;5293;51.464;-2.566;2022-07-23T05:30:13;17.00;99.90
10492;DHT22;5293;51.464;-2.566;2022-07-23T05:32:39;17.00;99.90
10492;DHT22;5293;51.464;-2.566;2022-07-23T05:35:05;17.10;99.90
10492;DHT22;5293;51.464;-2.566;2022-07-23T05:37:31;17.10;99.90
10492;DHT22;5293;51.464;-2.566;2022-07-23T05:40:08;17.10;99.90
10492;DHT22;5293;51.464;-2.566;2022-07-23T05:42:38;17.20;99.90
10492;DHT22;5293;51.464;-2.566;2022-07-23T05:45:05;17.30;99.90
10492;DHT22;5293;51.464;-2.566;2022-07-23T05:47:42;17.30;99.90
10492;DHT22;5293;51.464;-2.566;2022-07-23T05:50:08;17.40;99.90
10492;DHT22;5293;51.464;-2.566;2022-07-23T05:52:34;17.50;99.90
10492;DHT22;5293;51.464;-2.566;2022-07-23T05:54:59;17.70;99.90
10492;DHT22;5293;51.464;-2.566;2022-07-23T05:57:25;17.80;99.90
10492;DHT22;5293;51.464;-2.566;2022-07-23T05:59:50;17.80;99.90
10492;DHT22;5293;51.464;-2.566;2022-07-23T06:02:16;17.80;99.90
10492;DHT22;5293;51.464;-2.566;2022-07-23T06:04:42;17.80;99.90
10492;DHT22;5293;51.464;-2.566;2022-07-23T06:07:07;17.70;99.90
10492;DHT22;5293;51.464;-2.566;2022-07-23T06:09:33;17.70;99.90
10492;DHT22;5293;51.464;-2.566;2022-07-23T06:11:59;17.60;99.90
10492;DHT22;5293;51.464;-2.566;2022-07-23T06:14:24;17.50;99.90
10492;DHT22;5293;51.464;-2.566;2022-07-23T06:16:50;17.60;99.90
10492;DHT22;5293;51.464;-2.566;2022-07-23T06:19:16;17.60;99.90
10492;DHT22;5293;51.464;-2.566;2022-07-23T06:21:41;17.50;99.90
10492;DHT22;5293;51.464;-2.566;2022-07-23T06:24:07;17.40;99.90
10492;DHT22;5293;51.464;-2.566;2022-07-23T06:26:33;17.60;99.90
10492;DHT22;5293;51.464;-2.566;2022-07-23T06:28:58;17.80;99.90
10492;DHT22;5293;51.464;-2.566;2022-07-23T06:31:24;17.90;99.90
10492;DHT22;5293;51.464;-2.566;2022-07-23T06:33:50;17.90;99.90
10492;DHT22;5293;51.464;-2.566;2022-07-23T06:36:15;18.00;99.90
10492;DHT22;5293;51.464;-2.566;2022-07-23T06:38:41;18.10;99.90
10492;DHT22;5293;51.464;-2.566;2022-07-23T06:41:07;18.20;99.90
10492;DHT22;5293;51.464;-2.566;2022-07-23T06:43:32;18.30;99.90
10492;DHT22;5293;51.464;-2.566;2022-07-23T06:45:58;18.40;99.90
10492;DHT22;5293;51.464;-2.566;2022-07-23T06:48:24;18.60;99.90
10492;DHT22;5293;51.464;-2.566;2022-07-23T06:50:49;18.70;99.90
10492;DHT22;5293;51.464;-2.566;2022-07-23T06:53:17;18.90;99.90
10492;DHT22;5293;51.464;-2.566;2022-07-23T06:55:43;18.90;99.90
10492;DHT22;5293;51.464;-2.566;2022-07-23T06:58:09;19.00;99.90
10492;DHT22;5293;51.464;-2.566;2022-07-23T07:00:35;19.20;99.90
10492;DHT22;5293;51.464;-2.566;2022-07-23T07:03:01;19.30;99.90
10492;DHT22;5293;51.464;-2.566;2022-07-23T07:05:27;19.40;99.90
10492;DHT22;5293;51.464;-2.566;2022-07-23T07:07:54;19.60;99.90
10492;DHT22;5293;51.464;-2.566;2022-07-23T07:10:21;19.80;99.90
10492;DHT22;5293;51.464;-2.566;2022-07-23T07:12:46;19.90;99.90
10492;DHT22;5293;51.464;-2.566;2022-07-23T07:15:12;19.90;99.90
10492;DHT22;5293;51.464;-2.566;2022-07-23T07:17:38;20.00;99.90
10492;DHT22;5293;51.464;-2.566;2022-07-23T07:20:05;20.20;99.90
10492;DHT22;5293;51.464;-2.566;2022-07-23T07:22:31;20.20;99.90
10492;DHT22;5293;51.464;-2.566;2022-07-23T07:24:57;20.20;99.90
10492;DHT22;5293;51.464;-2.566;2022-07-23T07:27:22;20.30;99.90
10492;DHT22;5293;51.464;-2.566;2022-07-23T07:29:48;20.30;99.90
10492;DHT22;5293;51.464;-2.566;2022-07-23T07:32:14;20.30;99.90
10492;DHT22;5293;51.464;-2.566;2022-07-23T07:34:39;20.30;99.90
10492;DHT22;5293;51.464;-2.566;2022-07-23T07:37:05;20.10;99.90
10492;DHT22;5293;51.464;-2.566;2022-07-23T07:39:31;20.10;99.90
10492;DHT22;5293;51.464;-2.566;2022-07-23T07:41:56;20.00;99.90
10492;DHT22;5293;51.464;-2.566;2022-07-23T07:44:22;20.00;99.90
10492;DHT22;5293;51.464;-2.566;2022-07-23T07:46:47;20.20;99.90
10492;DHT22;5293;51.464;-2.566;2022-07-23T07:49:13;20.30;99.90
10492;DHT22;5293;51.464;-2.566;2022-07-23T07:51:39;20.40;99.90
10492;DHT22;5293;51.464;-2.566;2022-07-23T07:54:05;20.50;99.90
10492;DHT22;5293;51.464;-2.566;2022-07-23T07:56:30;20.70;99.90
10492;DHT22;5293;51.464;-2.566;2022-07-23T07:58:56;20.70;99.90
10492;DHT22;5293;51.464;-2.566;2022-07-23T08:01:22;20.80;99.90
10492;DHT22;5293;51.464;-2.566;2022-07-23T08:03:47;20.90;99.90
10492;DHT22;5293;51.464;-2.566;2022-07-23T08:06:13;21.00;99.90
10492;DHT22;5293;51.464;-2.566;2022-07-23T08:08:39;21.10;99.90
10492;DHT22;5293;51.464;-2.566;2022-07-23T08:11:04;21.30;99.90
10492;DHT22;5293;51.464;-2.566;2022-07-23T08:13:30;21.40;99.90
10492;DHT22;5293;51.464;-2.566;2022-07-23T08:15:56;21.60;99.90
10492;DHT22;5293;51.464;-2.566;2022-07-23T08:18:22;22.00;99.90
10492;DHT22;5293;51.464;-2.566;2022-07-23T08:20:47;22.10;99.90
10492;DHT22;5293;51.464;-2.566;2022-07-23T08:23:13;22.00;99.90
10492;DHT22;5293;51.464;-2.566;2022-07-23T08:25:42;21.80;99.90
10492;DHT22;5293;51.464;-2.566;2022-07-23T08:28:10;21.60;99.90
10492;DHT22;5293;51.464;-2.566;2022-07-23T08:30:37;21.50;99.90
10492;DHT22;5293;51.464;-2.566;2022-07-23T08:33:11;21.50;99.90
10492;DHT22;5293;51.464;-2.566;2022-07-23T08:35:42;21.70;99.90
10492;DHT22;5293;51.464;-2.566;2022-07-23T08:38:10;21.90;99.90
10492;DHT22;5293;51.464;-2.566;2022-07-23T08:40:41;22.20;99.90
10492;DHT22;5293;51.464;-2.566;2022-07-23T08:43:09;22.10;99.90
10492;DHT22;5293;51.464;-2.566;2022-07-23T08:45:40;22.10;99.90
10492;DHT22;5293;51.464;-2.566;2022-07-23T08:48:33;22.00;99.90
10492;DHT22;5293;51.464;-2.566;2022-07-23T08:51:02;22.10;99.90
10492;DHT22;5293;51.464;-2.566;2022-07-23T08:53:29;22.00;99.90
10492;DHT22;5293;51.464;-2.566;2022-07-23T08:56:00;21.80;99.90
10492;DHT22;5293;51.464;-2.566;2022-07-23T08:58:27;21.60;99.90
10492;DHT22;5293;51.464;-2.566;2022-07-23T09:00:53;21.30;99.90
10492;DHT22;5293;51.464;-2.566;2022-07-23T09:03:30;21.20;99.90
10492;DHT22;5293;51.464;-2.566;2022-07-23T09:05:57;21.20;99.90
10492;DHT22;5293;51.464;-2.566;2022-07-23T09:08:37;21.40;99.90
10492;DHT22;5293;51.464;-2.566;2022-07-23T09:11:05;21.50;99.90
10492;DHT22;5293;51.464;-2.566;2022-07-23T09:13:42;21.30;99.90
10492;DHT22;5293;51.464;-2.566;2022-07-23T09:19:07;21.50;99.90
10492;DHT22;5293;51.464;-2.566;2022-07-23T09:21:35;21.60;99.90
10492;DHT22;5293;51.464;-2.566;2022-07-23T09:24:04;21.60;99.90
10492;DHT22;5293;51.464;-2.566;2022-07-23T09:26:40;21.70;99.90
10492;DHT22;5293;51.464;-2.566;2022-07-23T09:29:22;21.80;99.90
10492;DHT22;5293;51.464;-2.566;2022-07-23T09:31:50;21.70;99.90
10492;DHT22;5293;51.464;-2.566;2022-07-23T09:34:25;21.80;99.90
10492;DHT22;5293;51.464;-2.566;2022-07-23T09:36:57;21.90;99.90
10492;DHT22;5293;51.464;-2.566;2022-07-23T09:39:32;22.00;99.90
10492;DHT22;5293;51.464;-2.566;2022-07-23T09:42:13;22.20;99.90
10492;DHT22;5293;51.464;-2.566;2022-07-23T09:44:50;22.20;99.90
10492;DHT22;5293;51.464;-2.566;2022-07-23T09:47:16;22.30;99.90
10492;DHT22;5293;51.464;-2.566;2022-07-23T09:52:42;22.40;99.90
10492;DHT22;5293;51.464;-2.566;2022-07-23T09:55:08;22.60;99.90
10492;DHT22;5293;51.464;-2.566;2022-07-23T09:57:35;22.60;99.90
10492;DHT22;5293;51.464;-2.566;2022-07-23T10:00:03;22.40;99.90
10492;DHT22;5293;51.464;-2.566;2022-07-23T10:02:32;22.40;99.90
10492;DHT22;5293;51.464;-2.566;2022-07-23T10:04:59;22.30;99.90
10492;DHT22;5293;51.464;-2.566;2022-07-23T10:07:26;22.40;99.90
10492;DHT22;5293;51.464;-2.566;2022-07-23T10:09:55;22.20;99.90
10492;DHT22;5293;51.464;-2.566;2022-07-23T10:12:22;22.30;99.90
10492;DHT22;5293;51.464;-2.566;2022-07-23T10:14:58;22.30;99.90
10492;DHT22;5293;51.464;-2.566;2022-07-23T10:17:24;22.20;99.90
10492;DHT22;5293;51.464;-2.566;2022-07-23T10:19:50;22.30;99.90
10492;DHT22;5293;51.464;-2.566;2022-07-23T10:22:21;22.30;99.90
10492;DHT22;5293;51.464;-2.566;2022-07-23T10:31:00;22.30;99.90
10492;DHT22;5293;51.464;-2.566;2022-07-23T10:39:14;22.10;99.90
10492;DHT22;5293;51.464;-2.566;2022-07-23T10:41:41;22.00;99.90
10492;DHT22;5293;51.464;-2.566;2022-07-23T10:44:14;21.80;99.90
10492;DHT22;5293;51.464;-2.566;2022-07-23T10:46:59;21.60;99.90
10492;DHT22;5293;51.464;-2.566;2022-07-23T10:50:26;21.40;99.90
10492;DHT22;5293;51.464;-2.566;2022-07-23T10:57:59;21.30;99.90
10492;DHT22;5293;51.464;-2.566;2022-07-23T11:00:27;21.40;99.90
10492;DHT22;5293;51.464;-2.566;2022-07-23T11:02:59;21.50;99.90
10492;DHT22;5293;51.464;-2.566;2022-07-23T11:05:38;21.60;99.90
10492;DHT22;5293;51.464;-2.566;2022-07-23T11:10:40;21.50;99.90
10492;DHT22;5293;51.464;-2.566;2022-07-23T11:24:07;22.20;99.90
10492;DHT22;5293;51.464;-2.566;2022-07-23T11:26:57;22.30;99.90
10492;DHT22;5293;51.464;-2.566;2022-07-23T11:32:00;22.30;99.90
10492;DHT22;5293;51.464;-2.566;2022-07-23T11:34:38;22.40;99.90
10492;DHT22;5293;51.464;-2.566;2022-07-23T11:37:06;22.60;99.90
10492;DHT22;5293;51.464;-2.566;2022-07-23T11:39:33;22.70;99.90
10492;DHT22;5293;51.464;-2.566;2022-07-23T11:42:00;22.60;99.90
10492;DHT22;5293;51.464;-2.566;2022-07-23T11:44:31;22.60;99.90
10492;DHT22;5293;51.464;-2.566;2022-07-23T11:47:05;22.40;99.90
10492;DHT22;5293;51.464;-2.566;2022-07-23T11:49:32;22.20;99.90
10492;DHT22;5293;51.464;-2.566;2022-07-23T11:52:13;22.10;99.90
10492;DHT22;5293;51.464;-2.566;2022-07-23T11:54:59;22.40;99.90
10492;DHT22;5293;51.464;-2.566;2022-07-23T11:57:30;22.40;99.90
10492;DHT22;5293;51.464;-2.566;2022-07-23T12:00:02;22.50;99.90
10492;DHT22;5293;51.464;-2.566;2022-07-23T12:02:28;22.60;99.90
10492;DHT22;5293;51.464;-2.566;2022-07-23T12:04:54;22.70;99.90
10492;DHT22;5293;51.464;-2.566;2022-07-23T12:10:03;22.80;99.90
10492;DHT22;5293;51.464;-2.566;2022-07-23T12:12:41;22.80;99.90
10492;DHT22;5293;51.464;-2.566;2022-07-23T12:15:08;22.60;99.90
10492;DHT22;5293;51.464;-2.566;2022-07-23T12:17:37;22.50;99.90
10492;DHT22;5293;51.464;-2.566;2022-07-23T12:20:08;22.40;99.90
10492;DHT22;5293;51.464;-2.566;2022-07-23T12:22:40;22.30;99.90
10492;DHT22;5293;51.464;-2.566;2022-07-23T12:25:10;22.30;99.90
10492;DHT22;5293;51.464;-2.566;2022-07-23T12:27:37;22.30;99.90
10492;DHT22;5293;51.464;-2.566;2022-07-23T12:30:26;22.40;99.90
10492;DHT22;5293;51.464;-2.566;2022-07-23T12:32:54;21.80;99.90
10492;DHT22;5293;51.464;-2.566;2022-07-23T12:35:22;22.10;99.90
10492;DHT22;5293;51.464;-2.566;2022-07-23T12:37:50;22.20;99.90
10492;DHT22;5293;51.464;-2.566;2022-07-23T12:40:34;22.30;99.90
10492;DHT22;5293;51.464;-2.566;2022-07-23T12:43:01;22.20;99.90
10492;DHT22;5293;51.464;-2.566;2022-07-23T12:45:28;22.10;99.90
10492;DHT22;5293;51.464;-2.566;2022-07-23T12:48:06;22.20;99.90
10492;DHT22;5293;51.464;-2.566;2022-07-23T12:50:38;22.20;99.90
10492;DHT22;5293;51.464;-2.566;2022-07-23T12:53:09;22.20;99.90
10492;DHT22;5293;51.464;-2.566;2022-07-23T12:55:36;22.10;99.90
10492;DHT22;5293;51.464;-2.566;2022-07-23T12:58:09;21.90;99.90
10492;DHT22;5293;51.464;-2.566;2022-07-23T13:01:10;21.90;99.90
10492;DHT22;5293;51.464;-2.566;2022-07-23T13:06:38;21.80;99.90
10492;DHT22;5293;51.464;-2.566;2022-07-23T13:09:06;21.90;99.90
10492;DHT22;5293;51.464;-2.566;2022-07-23T13:11:32;21.90;99.90
10492;DHT22;5293;51.464;-2.566;2022-07-23T13:13:59;22.00;99.90
10492;DHT22;5293;51.464;-2.566;2022-07-23T13:16:26;22.20;99.90
10492;DHT22;5293;51.464;-2.566;2022-07-23T13:18:52;22.40;99.90
10492;DHT22;5293;51.464;-2.566;2022-07-23T13:21:18;22.40;99.90
10492;DHT22;5293;51.464;-2.566;2022-07-23T13:23:44;22.50;99.90
10492;DHT22;5293;51.464;-2.566;2022-07-23T13:26:09;22.70;99.90
10492;DHT22;5293;51.464;-2.566;2022-07-23T13:28:35;22.80;99.90
10492;DHT22;5293;51.464;-2.566;2022-07-23T13:31:01;22.90;99.90
10492;DHT22;5293;51.464;-2.566;2022-07-23T13:33:27;23.00;99.90
10492;DHT22;5293;51.464;-2.566;2022-07-23T13:35:53;23.10;99.90
10492;DHT22;5293;51.464;-2.566;2022-07-23T13:38:20;23.20;99.90
10492;DHT22;5293;51.464;-2.566;2022-07-23T13:40:48;23.10;99.90
10492;DHT22;5293;51.464;-2.566;2022-07-23T13:43:17;23.00;99.90
10492;DHT22;5293;51.464;-2.566;2022-07-23T13:45:43;23.00;99.90
10492;DHT22;5293;51.464;-2.566;2022-07-23T13:48:11;23.00;99.90
10492;DHT22;5293;51.464;-2.566;2022-07-23T13:50:37;23.00;99.90
10492;DHT22;5293;51.464;-2.566;2022-07-23T13:53:04;22.90;99.90
10492;DHT22;5293;51.464;-2.566;2022-07-23T13:55:31;22.90;99.90
10492;DHT22;5293;51.464;-2.566;2022-07-23T13:57:57;22.80;99.90
10492;DHT22;5293;51.464;-2.566;2022-07-23T14:00:23;22.80;99.90
10492;DHT22;5293;51.464;-2.566;2022-07-23T14:02:49;22.70;99.90
10492;DHT22;5293;51.464;-2.566;2022-07-23T14:05:15;22.70;99.90
10492;DHT22;5293;51.464;-2.566;2022-07-23T14:07:40;22.60;99.90
10492;DHT22;5293;51.464;-2.566;2022-07-23T14:10:08;22.50;99.90
10492;DHT22;5293;51.464;-2.566;2022-07-23T14:12:35;22.40;99.90
10492;DHT22;5293;51.464;-2.566;2022-07-23T14:15:01;22.30;99.90
10492;DHT22;5293;51.464;-2.566;2022-07-23T14:17:26;22.20;99.90
10492;DHT22;5293;51.464;-2.566;2022-07-23T14:19:52;22.20;99.90
10492;DHT22;5293;51.464;-2.566;2022-07-23T14:22:18;22.10;99.90
10492;DHT22;5293;51.464;-2.566;2022-07-23T14:24:43;22.20;99.90
10492;DHT22;5293;51.464;-2.566;2022-07-23T14:27:09;22.30;99.90
10492;DHT22;5293;51.464;-2.566;2022-07-23T14:29:35;22.50;99.90
10492;DHT22;5293;51.464;-2.566;2022-07-23T14:32:02;22.70;99.90
10492;DHT22;5293;51.464;-2.566;2022-07-23T14:34:27;22.90;99.90
10492;DHT22;5293;51.464;-2.566;2022-07-23T14:36:53;23.20;99.90
10492;DHT22;5293;51.464;-2.566;2022-07-23T14:39:19;23.30;99.90
10492;DHT22;5293;51.464;-2.566;2022-07-23T14:41:45;23.20;99.90
10492;DHT22;5293;51.464;-2.566;2022-07-23T14:44:11;23.00;99.90
10492;DHT22;5293;51.464;-2.566;2022-07-23T14:46:37;22.80;99.90
10492;DHT22;5293;51.464;-2.566;2022-07-23T14:49:03;22.70;99.90
10492;DHT22;5293;51.464;-2.566;2022-07-23T14:51:29;22.70;99.90
10492;DHT22;5293;51.464;-2.566;2022-07-23T14:53:55;22.50;99.90
10492;DHT22;5293;51.464;-2.566;2022-07-23T14:56:21;22.30;99.90
10492;DHT22;5293;51.464;-2.566;2022-07-23T14:58:47;22.10;99.90
10492;DHT22;5293;51.464;-2.566;2022-07-23T15:01:13;21.90;99.90
10492;DHT22;5293;51.464;-2.566;2022-07-23T15:03:39;22.00;99.90
10492;DHT22;5293;51.464;-2.566;2022-07-23T15:06:06;22.10;99.90
10492;DHT22;5293;51.464;-2.566;2022-07-23T15:08:32;22.00;99.90
10492;DHT22;5293;51.464;-2.566;2022-07-23T15:10:57;21.90;99.90
10492;DHT22;5293;51.464;-2.566;2022-07-23T15:13:23;21.90;99.90
10492;DHT22;5293;51.464;-2.566;2022-07-23T15:15:49;21.90;99.90
10492;DHT22;5293;51.464;-2.566;2022-07-23T15:18:14;22.10;99.90
10492;DHT22;5293;51.464;-2.566;2022-07-23T15:20:40;22.10;99.90
10492;DHT22;5293;51.464;-2.566;2022-07-23T15:23:06;22.20;99.90
10492;DHT22;5293;51.464;-2.566;2022-07-23T15:25:34;22.40;99.90
10492;DHT22;5293;51.464;-2.566;2022-07-23T15:28:00;22.60;99.90
10492;DHT22;5293;51.464;-2.566;2022-07-23T15:30:26;22.70;99.90
10492;DHT22;5293;51.464;-2.566;2022-07-23T15:32:52;22.60;99.90
10492;DHT22;5293;51.464;-2.566;2022-07-23T15:35:19;22.60;99.90
10492;DHT22;5293;51.464;-2.566;2022-07-23T15:37:44;22.60;99.90
10492;DHT22;5293;51.464;-2.566;2022-07-23T15:40:10;22.50;99.90
10492;DHT22;5293;51.464;-2.566;2022-07-23T15:42:36;22.40;99.90
10492;DHT22;5293;51.464;-2.566;2022-07-23T15:45:03;22.20;99.90
10492;DHT22;5293;51.464;-2.566;2022-07-23T15:47:29;22.10;99.90
10492;DHT22;5293;51.464;-2.566;2022-07-23T15:49:54;22.20;99.90
10492;DHT22;5293;51.464;-2.566;2022-07-23T15:52:20;22.00;99.90
10492;DHT22;5293;51.464;-2.566;2022-07-23T15:54:46;21.90;99.90
10492;DHT22;5293;51.464;-2.566;2022-07-23T15:57:12;22.00;99.90
10492;DHT22;5293;51.464;-2.566;2022-07-23T15:59:38;22.00;99.90
10492;DHT22;5293;51.464;-2.566;2022-07-23T16:02:04;22.00;99.90
10492;DHT22;5293;51.464;-2.566;2022-07-23T16:04:31;21.90;99.90
10492;DHT22;5293;51.464;-2.566;2022-07-23T16:06:57;21.60;99.90
10492;DHT22;5293;51.464;-2.566;2022-07-23T16:09:23;21.80;99.90
10492;DHT22;5293;51.464;-2.566;2022-07-23T16:11:49;21.80;99.90
10492;DHT22;5293;51.464;-2.566;2022-07-23T16:14:14;22.00;99.90
10492;DHT22;5293;51.464;-2.566;2022-07-23T16:16:41;22.00;99.90
10492;DHT22;5293;51.464;-2.566;2022-07-23T16:19:07;22.00;99.90